Time;durP1;ratioP1;P1;durP2;ratioP2;P2;SDS_P1;SDS_P2;PMS_P1;PMS_P2;Temp;Humidity;BMP_temperature;BMP_pressure;BME280_temperature;BME280_humidity;BME280_pressure;Samples;Min_cycle;Max_cycle;Signal;HPM_P1;HPM_P2
2021/03/02 00:00:50;;;;;;;15.52;9.40;;;2.20;99.90;;;;;;5079034;28;20224;-92
2021/03/02 00:03:16;;;;;;;14.00;7.85;;;2.30;99.90;;;;;;5079546;28;20204;-92
2021/03/02 00:05:47;;;;;;;10.85;7.82;;;2.20;99.90;;;;;;5078861;28;20395;-92
2021/03/02 00:08:31;;;;;;;13.60;7.82;;;2.20;99.90;;;;;;5078135;28;20235;-92
2021/03/02 00:11:00;;;;;;;11.43;8.43;;;2.10;99.90;;;;;;5077257;28;20220;-92
2021/03/02 00:13:27;;;;;;;11.32;7.35;;;2.00;99.90;;;;;;5079455;28;20265;-92
2021/03/02 00:15:55;;;;;;;17.40;9.05;;;2.00;99.90;;;;;;5077527;28;20287;-91
2021/03/02 00:18:23;;;;;;;12.90;8.27;;;2.00;99.90;;;;;;5075727;28;20211;-92
2021/03/02 00:20:56;;;;;;;11.25;7.15;;;2.00;99.90;;;;;;5077144;28;20258;-93
2021/03/02 00:23:26;;;;;;;10.18;6.97;;;2.00;99.90;;;;;;5077501;28;20208;-91
2021/03/02 00:25:56;;;;;;;10.25;8.00;;;2.00;99.90;;;;;;5078109;28;20216;-93
2021/03/02 00:28:25;;;;;;;9.85;6.93;;;2.00;99.90;;;;;;5076748;28;20204;-92
2021/03/02 00:30:53;;;;;;;9.18;7.07;;;1.90;99.90;;;;;;5076788;28;20239;-93
2021/03/02 00:33:22;;;;;;;10.63;7.03;;;1.90;99.90;;;;;;5077164;28;20292;-91
2021/03/02 00:35:48;;;;;;;10.93;6.85;;;1.90;99.90;;;;;;5079165;28;20220;-92
2021/03/02 00:38:17;;;;;;;9.40;6.80;;;1.80;99.90;;;;;;5076833;28;20287;-92
2021/03/02 00:40:44;;;;;;;10.75;7.78;;;1.80;99.90;;;;;;5076080;28;20228;-92
2021/03/02 00:43:11;;;;;;;10.88;7.03;;;1.70;99.90;;;;;;5079138;28;20196;-93
2021/03/02 00:45:39;;;;;;;10.88;7.00;;;1.70;99.90;;;;;;5077869;28;20220;-92
2021/03/02 00:48:06;;;;;;;9.35;6.40;;;1.70;99.90;;;;;;5077214;28;20283;-93
2021/03/02 00:50:33;;;;;;;10.95;7.15;;;1.80;99.90;;;;;;5076466;28;20224;-93
2021/03/02 00:52:59;;;;;;;11.05;6.85;;;1.80;99.90;;;;;;5075925;28;20605;-92
2021/03/02 00:55:27;;;;;;;8.75;6.40;;;1.80;99.90;;;;;;5075240;28;20196;-92
2021/03/02 00:57:53;;;;;;;10.30;6.55;;;1.70;99.90;;;;;;5076719;28;20238;-93
2021/03/02 01:00:21;;;;;;;10.35;6.97;;;1.70;99.90;;;;;;5081114;28;20526;-92
2021/03/02 01:02:47;;;;;;;10.73;7.47;;;1.60;99.90;;;;;;5086030;28;20204;-92
2021/03/02 01:05:14;;;;;;;9.13;6.60;;;1.60;99.90;;;;;;5087206;28;20205;-93
2021/03/02 01:07:41;;;;;;;13.27;7.07;;;1.60;99.90;;;;;;5081368;28;20234;-93
2021/03/02 01:10:09;;;;;;;10.25;7.35;;;1.50;99.90;;;;;;5075085;28;20230;-92
2021/03/02 01:12:36;;;;;;;10.85;7.32;;;1.50;99.90;;;;;;5075281;28;20219;-92
2021/03/02 01:15:07;;;;;;;8.80;7.30;;;1.40;99.90;;;;;;5075215;28;20304;-92
2021/03/02 01:17:33;;;;;;;10.07;6.25;;;1.40;99.90;;;;;;5075427;28;20624;-92
2021/03/02 01:20:00;;;;;;;9.85;7.20;;;1.40;99.90;;;;;;5075064;28;20220;-92
2021/03/02 01:22:26;;;;;;;8.35;6.97;;;1.40;99.90;;;;;;5074995;28;20236;-92
2021/03/02 01:24:53;;;;;;;9.95;7.60;;;1.40;99.90;;;;;;5076042;28;20294;-92
2021/03/02 01:27:20;;;;;;;8.32;6.38;;;1.40;99.90;;;;;;5079785;28;20273;-92
2021/03/02 01:29:47;;;;;;;12.65;7.55;;;1.40;99.90;;;;;;5079600;28;20208;-92
2021/03/02 01:32:14;;;;;;;9.73;6.90;;;1.40;99.90;;;;;;5077886;28;20196;-93
2021/03/02 01:34:40;;;;;;;8.35;6.57;;;1.40;99.90;;;;;;5078104;28;20714;-92
2021/03/02 01:37:07;;;;;;;7.35;6.32;;;1.40;99.90;;;;;;5082922;28;20231;-92
2021/03/02 01:39:34;;;;;;;9.73;6.20;;;1.30;99.90;;;;;;5078439;28;20228;-93
2021/03/02 01:42:01;;;;;;;7.07;5.78;;;1.30;99.90;;;;;;5075604;28;20251;-92
2021/03/02 01:44:28;;;;;;;8.55;6.60;;;1.30;99.90;;;;;;5074500;28;20215;-92
2021/03/02 01:46:56;;;;;;;10.55;7.30;;;1.30;99.90;;;;;;5079613;28;20223;-91
2021/03/02 01:49:23;;;;;;;8.68;6.45;;;1.30;99.90;;;;;;5083556;28;20268;-92
2021/03/02 01:51:50;;;;;;;9.15;6.88;;;1.30;99.90;;;;;;5085072;28;20242;-92
2021/03/02 01:54:17;;;;;;;10.25;6.65;;;1.20;99.90;;;;;;5086007;28;20205;-92
2021/03/02 01:56:44;;;;;;;8.88;6.25;;;1.20;99.90;;;;;;5079382;28;20235;-93
2021/03/02 01:59:11;;;;;;;11.23;7.03;;;1.20;99.90;;;;;;5076453;28;20208;-92
2021/03/02 02:01:38;;;;;;;13.27;7.43;;;1.20;99.90;;;;;;5075232;28;20312;-93
2021/03/02 02:04:12;;;;;;;10.07;6.60;;;1.20;99.90;;;;;;5073895;28;20208;-92
2021/03/02 02:06:42;;;;;;;8.85;6.30;;;1.20;99.90;;;;;;5073688;28;20319;-92
2021/03/02 02:09:20;;;;;;;12.57;7.18;;;1.20;99.90;;;;;;5073881;28;20216;-92
2021/03/02 02:11:53;;;;;;;8.20;5.90;;;1.20;99.90;;;;;;5074142;28;20251;-91
2021/03/02 02:14:27;;;;;;;7.38;5.95;;;1.20;99.90;;;;;;5073877;28;20247;-93
2021/03/02 02:16:58;;;;;;;9.25;5.50;;;1.10;99.90;;;;;;5073630;28;20200;-94
2021/03/02 02:19:42;;;;;;;9.60;6.57;;;1.00;99.90;;;;;;5073207;28;20295;-92
2021/03/02 02:22:17;;;;;;;8.82;6.00;;;1.00;99.90;;;;;;5074058;28;20274;-92
2021/03/02 02:25:01;;;;;;;11.38;6.47;;;1.00;99.90;;;;;;5074402;28;20211;-92
2021/03/02 02:27:31;;;;;;;7.72;5.82;;;1.00;99.90;;;;;;5073667;28;20228;-92
2021/03/02 02:29:59;;;;;;;8.80;6.25;;;0.90;99.90;;;;;;5073390;28;20246;-92
2021/03/02 02:32:27;;;;;;;8.82;6.28;;;0.90;99.90;;;;;;5073598;28;20200;-92
2021/03/02 02:34:56;;;;;;;7.32;6.00;;;0.80;99.90;;;;;;5073490;28;20204;-92
2021/03/02 02:37:24;;;;;;;10.00;7.07;;;0.80;99.90;;;;;;5073110;28;20287;-92
2021/03/02 02:39:51;;;;;;;8.38;6.20;;;0.80;99.90;;;;;;5073249;28;20219;-92
2021/03/02 02:42:24;;;;;;;7.07;5.38;;;0.80;99.90;;;;;;5076171;28;20216;-92
2021/03/02 02:44:54;;;;;;;7.22;5.97;;;0.80;99.90;;;;;;5076043;28;20227;-92
2021/03/02 02:47:21;;;;;;;8.43;6.28;;;0.80;99.90;;;;;;5073710;28;20296;-92
2021/03/02 02:49:49;;;;;;;8.07;6.30;;;0.80;99.90;;;;;;5073387;28;20226;-92
2021/03/02 02:52:16;;;;;;;9.85;5.88;;;0.80;99.90;;;;;;5074077;28;20493;-92
2021/03/02 02:54:43;;;;;;;8.27;5.20;;;0.70;99.90;;;;;;5073830;28;20217;-92
2021/03/02 02:57:10;;;;;;;9.40;6.72;;;0.70;99.90;;;;;;5073621;28;20281;-92
2021/03/02 02:59:40;;;;;;;10.75;6.00;;;0.70;99.90;;;;;;5074238;28;20295;-93
2021/03/02 03:02:14;;;;;;;9.10;6.15;;;0.60;99.90;;;;;;5077233;28;20627;-92
2021/03/02 03:04:44;;;;;;;7.88;5.90;;;0.60;99.90;;;;;;5076563;28;20207;-92
2021/03/02 03:07:16;;;;;;;6.93;6.00;;;0.60;99.90;;;;;;5076301;28;20677;-92
2021/03/02 03:09:43;;;;;;;8.00;6.47;;;0.60;99.90;;;;;;5076267;28;20729;-93
2021/03/02 03:12:14;;;;;;;7.78;5.90;;;0.50;99.90;;;;;;5076681;28;20200;-93
2021/03/02 03:14:48;;;;;;;8.82;5.50;;;0.50;99.90;;;;;;5076761;28;20265;-92
2021/03/02 03:17:17;;;;;;;8.45;5.75;;;0.50;99.90;;;;;;5078796;28;20292;-94
2021/03/02 03:19:46;;;;;;;8.57;5.70;;;0.50;99.90;;;;;;5086592;28;20247;-94
2021/03/02 03:22:14;;;;;;;8.45;5.88;;;0.50;99.90;;;;;;5099572;28;20286;-94
2021/03/02 03:24:42;;;;;;;8.00;5.75;;;0.40;99.90;;;;;;5099675;28;20181;-94
2021/03/02 03:27:09;;;;;;;7.93;5.60;;;0.40;99.90;;;;;;5099477;28;20208;-94
2021/03/02 03:29:37;;;;;;;6.93;5.25;;;0.40;99.90;;;;;;5099161;28;20224;-91
2021/03/02 03:32:05;;;;;;;9.90;5.68;;;0.40;99.90;;;;;;5099305;28;20204;-93
2021/03/02 03:34:33;;;;;;;8.75;6.03;;;0.40;99.90;;;;;;5099336;28;20220;-93
2021/03/02 03:36:59;;;;;;;9.63;5.72;;;0.30;99.90;;;;;;5099439;28;20248;-94
2021/03/02 03:39:26;;;;;;;12.50;7.25;;;0.30;99.90;;;;;;5099221;28;20177;-94
2021/03/02 03:41:53;;;;;;;9.32;6.63;;;0.30;99.90;;;;;;5099089;28;20254;-94
2021/03/02 03:44:19;;;;;;;8.75;5.80;;;0.30;99.90;;;;;;5099135;28;20271;-93
2021/03/02 03:46:45;;;;;;;10.75;6.22;;;0.30;99.90;;;;;;5099005;28;20271;-95
2021/03/02 03:49:12;;;;;;;7.05;4.80;;;0.30;99.90;;;;;;5092961;28;20200;-94
2021/03/02 03:51:40;;;;;;;7.70;5.32;;;0.30;99.90;;;;;;5094948;28;20279;-94
2021/03/02 03:54:08;;;;;;;9.57;6.15;;;0.30;99.90;;;;;;5098587;28;20180;-94
2021/03/02 03:56:36;;;;;;;8.98;6.60;;;0.20;99.90;;;;;;5098896;28;20288;-93
2021/03/02 03:59:04;;;;;;;11.45;6.50;;;0.20;99.90;;;;;;5098621;28;20271;-93
2021/03/02 04:01:31;;;;;;;9.45;6.07;;;0.20;99.90;;;;;;5098236;28;20231;-93
2021/03/02 04:03:58;;;;;;;8.13;6.00;;;0.20;99.90;;;;;;5099024;28;20192;-93
2021/03/02 04:06:25;;;;;;;8.65;6.88;;;0.20;99.90;;;;;;5098609;28;20200;-92
2021/03/02 04:08:52;;;;;;;11.18;6.20;;;0.10;99.90;;;;;;5094557;28;20268;-92
2021/03/02 04:11:19;;;;;;;9.82;6.18;;;0.10;99.90;;;;;;5080248;28;20221;-92
2021/03/02 04:13:45;;;;;;;13.93;6.20;;;0.10;99.90;;;;;;5079327;28;20311;-92
2021/03/02 04:16:12;;;;;;;8.05;5.65;;;0.00;99.90;;;;;;5095173;28;20256;-94
2021/03/02 04:18:39;;;;;;;10.75;6.20;;;0.00;99.90;;;;;;5098379;28;20226;-95
2021/03/02 04:21:05;;;;;;;9.10;6.82;;;0.00;99.90;;;;;;5098521;28;20264;-94
2021/03/02 04:23:32;;;;;;;10.65;5.63;;;0.00;99.90;;;;;;5098466;28;20188;-95
2021/03/02 04:25:59;;;;;;;8.15;6.10;;;-0.10;99.90;;;;;;5098644;28;20291;-95
2021/03/02 04:28:26;;;;;;;11.27;6.43;;;-0.10;99.90;;;;;;5098305;28;20196;-94
2021/03/02 04:30:52;;;;;;;8.02;6.10;;;0.00;99.90;;;;;;5098575;28;20200;-95
2021/03/02 04:33:19;;;;;;;11.20;7.35;;;0.00;99.90;;;;;;5111298;22;20231;-73
2021/03/02 04:35:45;;;;;;;9.15;6.07;;;0.00;99.90;;;;;;5109546;28;20245;-73
2021/03/02 04:38:11;;;;;;;7.72;6.07;;;0.00;99.90;;;;;;5110601;28;20195;-73
2021/03/02 04:40:38;;;;;;;11.27;6.97;;;0.00;99.90;;;;;;5097915;28;20591;-73
2021/03/02 04:43:05;;;;;;;9.80;6.68;;;0.00;99.90;;;;;;5090410;28;20579;-74
2021/03/02 04:45:31;;;;;;;11.85;7.55;;;0.00;99.90;;;;;;5089785;28;20204;-73
2021/03/02 04:47:57;;;;;;;10.55;6.90;;;-0.10;99.90;;;;;;5090256;28;20203;-73
2021/03/02 04:50:23;;;;;;;9.38;6.20;;;-0.10;99.90;;;;;;5089386;28;20216;-72
2021/03/02 04:52:50;;;;;;;9.35;6.18;;;-0.10;99.90;;;;;;5089858;28;20229;-72
2021/03/02 04:55:16;;;;;;;9.45;6.55;;;-0.10;99.90;;;;;;5090224;28;20544;-73
2021/03/02 04:57:42;;;;;;;8.85;7.00;;;-0.10;99.90;;;;;;5090149;28;20223;-74
2021/03/02 05:00:11;;;;;;;8.80;5.70;;;-0.10;99.90;;;;;;5094097;28;20227;-72
2021/03/02 05:02:37;;;;;;;10.50;7.18;;;-0.10;99.90;;;;;;5088517;28;20195;-73
2021/03/02 05:05:05;;;;;;;9.70;7.35;;;-0.10;99.90;;;;;;5085050;28;20196;-73
2021/03/02 05:07:31;;;;;;;8.63;6.90;;;-0.10;99.90;;;;;;5085348;28;20227;-73
2021/03/02 05:09:58;;;;;;;9.15;6.95;;;-0.20;99.90;;;;;;5086124;28;20223;-73
2021/03/02 05:12:24;;;;;;;10.25;7.68;;;-0.20;99.90;;;;;;5089441;28;20314;-73
2021/03/02 05:14:50;;;;;;;8.70;6.65;;;-0.20;99.90;;;;;;5087770;28;20200;-72
2021/03/02 05:17:17;;;;;;;10.35;6.45;;;-0.20;99.90;;;;;;5089428;28;20195;-71
2021/03/02 05:19:44;;;;;;;9.10;6.93;;;-0.20;99.90;;;;;;5089050;28;20227;-72
2021/03/02 05:22:10;;;;;;;13.18;7.40;;;-0.30;99.90;;;;;;5128248;22;20233;-72
2021/03/02 05:24:36;;;;;;;14.48;6.75;;;-0.30;99.90;;;;;;5044783;28;20208;-71
2021/03/02 05:27:02;;;;;;;10.15;7.20;;;-0.30;99.90;;;;;;5048713;28;20221;-70
2021/03/02 05:29:29;;;;;;;10.10;6.25;;;-0.20;99.90;;;;;;5049770;28;20201;-70
2021/03/02 05:31:55;;;;;;;8.50;6.50;;;-0.30;99.90;;;;;;5068661;28;20200;-70
2021/03/02 05:34:22;;;;;;;11.95;8.18;;;-0.30;99.90;;;;;;5068779;28;20223;-69
2021/03/02 05:36:49;;;;;;;11.40;6.97;;;-0.30;99.90;;;;;;5068652;28;20201;-71
2021/03/02 05:39:15;;;;;;;8.52;6.40;;;-0.30;99.90;;;;;;5068428;28;20204;-70
2021/03/02 05:41:43;;;;;;;8.68;6.20;;;-0.30;99.90;;;;;;5068463;28;20262;-70
2021/03/02 05:44:11;;;;;;;10.15;6.55;;;-0.30;99.90;;;;;;5068710;28;20208;-70
2021/03/02 05:46:40;;;;;;;8.60;6.53;;;-0.30;99.90;;;;;;5068076;28;20216;-69
2021/03/02 05:49:06;;;;;;;7.70;6.35;;;-0.30;99.90;;;;;;5067953;28;20258;-70
2021/03/02 05:51:34;;;;;;;12.48;8.02;;;-0.30;99.90;;;;;;5067811;28;20227;-70
2021/03/02 05:54:00;;;;;;;10.98;7.22;;;-0.20;99.90;;;;;;5068647;28;20200;-69
2021/03/02 05:56:27;;;;;;;10.38;6.85;;;-0.30;99.90;;;;;;5069138;28;20287;-69
2021/03/02 05:58:53;;;;;;;10.10;6.75;;;-0.20;99.90;;;;;;5067927;28;20420;-70
2021/03/02 06:01:20;;;;;;;9.02;6.75;;;-0.30;99.90;;;;;;5068350;28;20239;-71
2021/03/02 06:03:46;;;;;;;12.65;7.05;;;-0.30;99.90;;;;;;5067858;28;20758;-69
2021/03/02 06:06:12;;;;;;;9.23;7.03;;;-0.30;99.90;;;;;;5068350;28;20616;-70
2021/03/02 06:08:39;;;;;;;10.98;7.18;;;-0.40;99.90;;;;;;5067587;28;20211;-70
2021/03/02 06:11:26;;;;;;;12.20;7.75;;;-0.40;99.90;;;;;;5068578;28;20224;-71
2021/03/02 06:13:52;;;;;;;9.68;7.10;;;-0.50;99.90;;;;;;5068153;28;20211;-72
2021/03/02 06:16:19;;;;;;;11.30;6.78;;;-0.50;99.90;;;;;;5068624;28;20196;-72
2021/03/02 06:18:50;;;;;;;11.95;7.53;;;-0.50;99.90;;;;;;5067499;28;20204;-69
2021/03/02 06:21:16;;;;;;;11.00;8.13;;;-0.50;99.90;;;;;;5067982;28;20227;-70
2021/03/02 06:23:48;;;;;;;10.50;7.40;;;-0.50;99.90;;;;;;5068176;28;20568;-70
2021/03/02 06:26:24;;;;;;;12.77;7.53;;;-0.50;99.90;;;;;;5068110;28;20588;-70
2021/03/02 06:28:52;;;;;;;15.32;8.27;;;-0.40;99.90;;;;;;5067416;28;20229;-70
2021/03/02 06:31:36;;;;;;;10.60;8.68;;;-0.40;99.90;;;;;;5068119;28;20224;-70
2021/03/02 06:34:07;;;;;;;12.57;8.57;;;-0.30;99.90;;;;;;5068682;28;20261;-71
2021/03/02 06:36:33;;;;;;;12.60;8.82;;;-0.20;99.90;;;;;;5068946;28;20196;-70
2021/03/02 06:39:20;;;;;;;11.75;8.13;;;-0.20;99.90;;;;;;5071880;28;20842;-70
2021/03/02 06:41:46;;;;;;;12.45;8.50;;;-0.20;99.90;;;;;;5072440;28;20200;-70
2021/03/02 06:44:13;;;;;;;12.63;8.20;;;-0.20;99.90;;;;;;5072362;28;20204;-70
2021/03/02 06:46:39;;;;;;;14.45;9.25;;;-0.20;99.90;;;;;;5072113;28;20224;-70
2021/03/02 06:49:06;;;;;;;11.88;8.73;;;-0.20;99.90;;;;;;5071604;28;20200;-69
2021/03/02 06:51:33;;;;;;;12.00;9.20;;;-0.10;99.90;;;;;;5072205;28;20221;-70
2021/03/02 06:54:05;;;;;;;13.10;9.05;;;-0.10;99.90;;;;;;5072075;28;20204;-71
2021/03/02 06:56:32;;;;;;;11.95;8.43;;;0.00;99.90;;;;;;5071907;28;20265;-70
2021/03/02 06:59:14;;;;;;;12.82;8.55;;;0.00;99.90;;;;;;5071659;28;20200;-71
2021/03/02 07:01:41;;;;;;;12.45;8.38;;;0.00;99.90;;;;;;5085295;28;20243;-70
2021/03/02 07:04:12;;;;;;;12.32;8.15;;;0.10;99.90;;;;;;5092534;28;20216;-71
2021/03/02 07:06:39;;;;;;;11.40;7.82;;;0.10;99.90;;;;;;5091782;28;20228;-71
2021/03/02 07:09:07;;;;;;;11.43;7.38;;;0.30;99.90;;;;;;5091950;28;20203;-70
2021/03/02 07:11:36;;;;;;;12.90;8.85;;;0.30;99.90;;;;;;5091855;28;20618;-70
2021/03/02 07:14:04;;;;;;;13.90;9.00;;;0.50;99.90;;;;;;5092119;28;20340;-69
2021/03/02 07:16:31;;;;;;;11.30;8.18;;;0.80;99.90;;;;;;5091727;28;20198;-70
2021/03/02 07:19:01;;;;;;;11.55;8.02;;;1.60;99.90;;;;;;5091354;28;20250;-70
2021/03/02 07:21:29;;;;;;;15.20;8.23;;;2.50;99.90;;;;;;5091842;28;20231;-70
2021/03/02 07:23:59;;;;;;;12.10;8.25;;;3.50;99.90;;;;;;5092098;28;20236;-71
2021/03/02 07:26:25;;;;;;;13.05;7.15;;;4.50;99.90;;;;;;5091477;28;20247;-70
2021/03/02 07:28:53;;;;;;;11.10;7.93;;;5.60;99.90;;;;;;5091372;28;20207;-71
2021/03/02 07:31:19;;;;;;;13.85;7.30;;;6.60;99.90;;;;;;5091665;28;20240;-71
2021/03/02 07:33:46;;;;;;;11.02;7.82;;;7.50;99.90;;;;;;5092193;28;20204;-70
2021/03/02 07:36:13;;;;;;;14.07;7.90;;;8.20;99.90;;;;;;5091784;28;20247;-70
2021/03/02 07:38:39;;;;;;;10.35;8.00;;;9.00;99.10;;;;;;5090934;28;20222;-70
2021/03/02 07:41:06;;;;;;;13.90;7.60;;;9.80;97.60;;;;;;5091317;28;20811;-70
2021/03/02 07:43:34;;;;;;;9.30;8.23;;;10.30;95.90;;;;;;5091286;28;20238;-71
2021/03/02 07:46:23;;;;;;;9.20;8.07;;;11.00;95.00;;;;;;5082345;28;20220;-70
2021/03/02 07:48:49;;;;;;;11.25;8.43;;;11.60;93.70;;;;;;5069107;28;20578;-70
2021/03/02 07:51:17;;;;;;;14.02;9.60;;;12.20;92.60;;;;;;5071146;28;20244;-70
2021/03/02 07:53:45;;;;;;;11.45;7.93;;;12.30;92.00;;;;;;5060723;28;20223;-70
2021/03/02 07:56:32;;;;;;;10.63;8.00;;;12.60;91.60;;;;;;5051104;28;20200;-71
2021/03/02 07:59:17;;;;;;;12.60;8.65;;;13.00;91.10;;;;;;5046920;28;20568;-70
2021/03/02 08:01:45;;;;;;;10.50;8.50;;;13.40;90.40;;;;;;5050159;28;20935;-70
2021/03/02 08:04:25;;;;;;;12.70;9.95;;;13.60;90.50;;;;;;5051193;28;20825;-70
2021/03/02 08:06:52;;;;;;;11.90;9.37;;;14.20;89.70;;;;;;5050686;28;20326;-70
2021/03/02 08:09:30;;;;;;;10.57;9.30;;;14.50;88.90;;;;;;5050358;28;20489;-70
2021/03/02 08:12:30;;;;;;;10.70;9.07;;;15.00;85.90;;;;;;5050650;28;20839;-71
2021/03/02 08:14:57;;;;;;;11.40;9.97;;;15.20;85.30;;;;;;5050883;28;20460;-70
2021/03/02 08:17:25;;;;;;;11.77;9.77;;;15.80;82.90;;;;;;5050554;28;21036;-71
2021/03/02 08:19:59;;;;;;;12.13;10.17;;;16.20;82.70;;;;;;5059421;28;20923;-69
2021/03/02 08:22:59;;;;;;;11.27;9.23;;;16.30;80.40;;;;;;5066221;28;20473;-70
2021/03/02 08:25:30;;;;;;;11.77;9.70;;;16.40;78.10;;;;;;5050821;28;20509;-70
2021/03/02 08:28:09;;;;;;;12.23;8.90;;;16.30;79.50;;;;;;5050542;28;20487;-70
2021/03/02 08:30:37;;;;;;;11.17;9.10;;;16.60;77.60;;;;;;5048907;28;20491;-70
2021/03/02 08:33:09;;;;;;;12.83;9.37;;;17.20;76.80;;;;;;5050125;28;21163;-70
2021/03/02 08:35:37;;;;;;;11.13;9.33;;;17.40;76.40;;;;;;5049835;28;20897;-71
2021/03/02 08:38:05;;;;;;;10.97;9.80;;;18.00;75.50;;;;;;5050504;28;20463;-71
2021/03/02 08:40:46;;;;;;;13.83;9.70;;;18.60;76.10;;;;;;5049257;28;20502;-70
2021/03/02 08:43:15;;;;;;;11.03;9.10;;;19.20;72.40;;;;;;5062204;28;20462;-69
2021/03/02 08:45:43;;;;;;;13.23;9.00;;;19.60;72.30;;;;;;5069236;28;20519;-71
2021/03/02 08:48:15;;;;;;;10.40;9.30;;;20.30;70.90;;;;;;5069724;28;20888;-71
2021/03/02 08:50:43;;;;;;;10.90;9.57;;;20.80;68.30;;;;;;5048747;28;20483;-71
2021/03/02 08:53:32;;;;;;;10.50;9.50;;;21.10;68.20;;;;;;5050090;28;20509;-71
2021/03/02 08:56:00;;;;;;;10.50;9.40;;;21.30;66.90;;;;;;5049610;28;20966;-71
2021/03/02 08:58:31;;;;;;;12.10;10.10;;;21.70;65.30;;;;;;5049940;28;20467;-71
2021/03/02 09:00:58;;;;;;;11.10;9.97;;;21.80;66.60;;;;;;5048433;28;20489;-71
2021/03/02 09:03:25;;;;;;;10.90;9.50;;;22.10;64.60;;;;;;5049800;28;20455;-71
2021/03/02 09:06:10;;;;;;;12.40;9.30;;;22.50;64.50;;;;;;5049241;28;20962;-71
2021/03/02 09:08:58;;;;;;;10.60;9.50;;;22.90;64.20;;;;;;5048105;28;20465;-71
2021/03/02 09:11:27;;;;;;;10.70;9.60;;;22.80;63.40;;;;;;5046194;28;20483;-71
2021/03/02 09:13:54;;;;;;;13.80;10.13;;;23.20;62.00;;;;;;5048972;28;20824;-71
2021/03/02 09:16:32;;;;;;;12.73;10.90;;;23.40;62.20;;;;;;5049652;28;20484;-71
2021/03/02 09:19:08;;;;;;;11.93;9.97;;;23.00;62.60;;;;;;5048996;28;20463;-71
2021/03/02 09:21:36;;;;;;;13.70;10.53;;;23.50;61.80;;;;;;5048729;28;20493;-70
2021/03/02 09:24:04;;;;;;;11.33;10.13;;;23.70;62.40;;;;;;5049316;28;20464;-71
2021/03/02 09:26:31;;;;;;;18.50;10.80;;;23.80;61.50;;;;;;5048311;28;20475;-70
2021/03/02 09:28:59;;;;;;;15.70;10.93;;;23.90;61.70;;;;;;5048590;28;20467;-70
2021/03/02 09:31:27;;;;;;;14.53;9.73;;;23.80;61.40;;;;;;5048816;28;20475;-70
2021/03/02 09:33:55;;;;;;;12.97;11.00;;;24.30;61.40;;;;;;5049126;28;20464;-71
2021/03/02 09:36:24;;;;;;;14.00;10.67;;;24.80;61.00;;;;;;5049006;28;20460;-71
2021/03/02 09:38:52;;;;;;;11.57;9.50;;;24.50;59.90;;;;;;5047913;28;20460;-70
2021/03/02 09:41:35;;;;;;;12.17;10.70;;;24.40;60.70;;;;;;5048542;28;20483;-69
2021/03/02 09:44:25;;;;;;;11.13;10.00;;;24.00;60.40;;;;;;5048903;28;20469;-70
2021/03/02 09:46:54;;;;;;;12.47;10.70;;;24.60;60.40;;;;;;5048602;28;20490;-71
2021/03/02 09:49:41;;;;;;;14.60;11.00;;;24.40;60.30;;;;;;5048242;28;20513;-69
2021/03/02 09:52:24;;;;;;;15.53;10.37;;;24.60;59.20;;;;;;5048872;28;20495;-70
2021/03/02 09:55:17;;;;;;;12.20;10.00;;;24.30;59.70;;;;;;5048720;28;20459;-70
2021/03/02 09:57:48;;;;;;;12.83;11.37;;;24.70;59.80;;;;;;5048016;28;20471;-69
2021/03/02 10:00:15;;;;;;;13.10;10.67;;;25.00;58.50;;;;;;5044058;28;21187;-70
2021/03/02 10:02:49;;;;;;;12.30;10.20;;;24.70;59.90;;;;;;5053236;28;20470;-70
2021/03/02 10:05:26;;;;;;;10.93;9.53;;;24.60;59.40;;;;;;5068924;28;20473;-70
2021/03/02 10:07:53;;;;;;;12.73;10.67;;;25.10;59.10;;;;;;5068687;28;20481;-70
2021/03/02 10:10:34;;;;;;;17.60;11.47;;;25.10;59.90;;;;;;5066970;28;20493;-70
2021/03/02 10:13:00;;;;;;;12.50;11.00;;;25.20;59.10;;;;;;5067962;28;20455;-70
2021/03/02 10:15:27;;;;;;;11.57;10.30;;;25.60;59.00;;;;;;5068283;28;20473;-70
2021/03/02 10:17:53;;;;;;;12.70;10.77;;;25.60;58.80;;;;;;5068505;28;20515;-71
2021/03/02 10:20:19;;;;;;;12.20;10.53;;;25.70;58.50;;;;;;5067651;28;20478;-70
2021/03/02 10:22:45;;;;;;;10.80;9.70;;;25.60;58.70;;;;;;5066046;28;20474;-70
2021/03/02 10:25:14;;;;;;;13.37;11.00;;;25.80;58.60;;;;;;5068439;28;20511;-69
2021/03/02 10:27:42;;;;;;;15.33;10.10;;;26.10;57.60;;;;;;5067680;28;20509;-70
2021/03/02 10:30:10;;;;;;;14.30;10.30;;;26.40;57.10;;;;;;5067835;28;21028;-70
2021/03/02 10:32:36;;;;;;;11.83;10.63;;;25.60;58.60;;;;;;5067737;28;20465;-71
2021/03/02 10:35:02;;;;;;;12.20;11.00;;;25.70;58.30;;;;;;5067802;28;20540;-70
2021/03/02 10:37:28;;;;;;;11.97;9.80;;;25.80;58.30;;;;;;5067775;28;20864;-71
2021/03/02 10:39:55;;;;;;;12.90;11.50;;;26.20;58.60;;;;;;5067349;28;20540;-70
2021/03/02 10:42:22;;;;;;;11.80;10.60;;;26.90;56.70;;;;;;5068478;28;20465;-71
2021/03/02 10:44:48;;;;;;;12.63;11.33;;;26.80;57.30;;;;;;5068303;28;20462;-71
2021/03/02 10:47:14;;;;;;;11.27;9.93;;;27.10;56.80;;;;;;5067760;28;20478;-71
2021/03/02 10:49:41;;;;;;;10.93;9.97;;;27.40;56.60;;;;;;5066978;28;20478;-70
2021/03/02 10:52:07;;;;;;;15.87;11.03;;;27.80;56.00;;;;;;5050267;28;20459;-70
2021/03/02 10:54:35;;;;;;;12.90;10.90;;;28.00;54.90;;;;;;5048117;28;20459;-71
2021/03/02 10:57:02;;;;;;;12.73;11.40;;;27.20;56.20;;;;;;5048674;28;20460;-70
2021/03/02 10:59:29;;;;;;;13.87;11.37;;;26.60;57.00;;;;;;5046589;28;20481;-70
2021/03/02 11:01:57;;;;;;;12.57;11.37;;;26.60;57.20;;;;;;5047542;28;20982;-71
2021/03/02 11:04:23;;;;;;;13.43;11.60;;;26.60;56.90;;;;;;5047610;28;20513;-69
2021/03/02 11:06:49;;;;;;;11.70;10.57;;;26.20;57.80;;;;;;5046780;28;20507;-70
2021/03/02 11:09:17;;;;;;;12.53;10.93;;;26.40;57.60;;;;;;5047519;28;20465;-70
2021/03/02 11:11:43;;;;;;;12.20;10.97;;;27.00;56.50;;;;;;5046770;28;20467;-70
2021/03/02 11:14:09;;;;;;;13.63;11.00;;;26.90;55.90;;;;;;5047881;28;20455;-70
2021/03/02 11:16:36;;;;;;;12.30;11.07;;;26.70;56.00;;;;;;5047340;28;20455;-70
2021/03/02 11:19:02;;;;;;;12.40;11.07;;;26.20;56.50;;;;;;5047021;28;20461;-70
2021/03/02 11:21:28;;;;;;;12.87;10.73;;;26.10;58.20;;;;;;5047258;28;20495;-70
2021/03/02 11:23:55;;;;;;;13.40;11.67;;;25.90;58.00;;;;;;5049446;28;20476;-70
2021/03/02 11:26:21;;;;;;;12.47;11.00;;;26.90;57.20;;;;;;5051191;28;20845;-70
2021/03/02 11:28:47;;;;;;;13.53;11.10;;;27.40;57.30;;;;;;5050266;28;20525;-70
2021/03/02 11:31:13;;;;;;;16.43;11.70;;;28.00;55.80;;;;;;5050188;28;20615;-70
2021/03/02 11:33:40;;;;;;;11.53;10.33;;;28.30;55.30;;;;;;5058865;28;20515;-70
2021/03/02 11:36:07;;;;;;;12.03;10.80;;;28.70;54.40;;;;;;5068688;28;20467;-69
2021/03/02 11:38:33;;;;;;;13.20;10.93;;;28.40;54.20;;;;;;5050152;28;20463;-69
2021/03/02 11:40:59;;;;;;;12.90;11.13;;;27.90;54.90;;;;;;5050720;28;20970;-69
2021/03/02 11:43:26;;;;;;;13.63;11.40;;;27.60;54.40;;;;;;5050284;28;20459;-71
2021/03/02 11:45:52;;;;;;;14.03;11.30;;;27.80;55.00;;;;;;5050742;28;20505;-70
2021/03/02 11:48:18;;;;;;;11.80;10.70;;;27.40;55.30;;;;;;5050347;28;20483;-69
2021/03/02 11:50:45;;;;;;;13.70;11.43;;;27.30;55.40;;;;;;5080452;22;20483;-92
2021/03/02 11:53:12;;;;;;;14.53;10.37;;;27.90;55.20;;;;;;5094167;28;20460;-90
2021/03/02 11:55:38;;;;;;;12.90;10.90;;;28.40;53.10;;;;;;5096192;28;20453;-90
2021/03/02 11:58:04;;;;;;;11.43;10.33;;;27.90;54.90;;;;;;5095181;28;20889;-90
2021/03/02 12:00:31;;;;;;;11.27;10.10;;;28.30;53.40;;;;;;5093776;28;20518;-91
2021/03/02 12:02:58;;;;;;;12.93;10.50;;;28.20;54.00;;;;;;5074873;28;20551;-90
2021/03/02 12:05:24;;;;;;;10.70;9.63;;;28.60;52.60;;;;;;5075478;28;20973;-90
2021/03/02 12:07:51;;;;;;;11.67;10.20;;;28.90;51.50;;;;;;5074577;28;20447;-90
2021/03/02 12:12:44;;;;;;;10.70;9.67;;;29.10;52.10;;;;;;5114264;22;20563;-72
2021/03/02 12:15:12;;;;;;;12.43;10.90;;;29.00;52.00;;;;;;5110791;28;20200;-72
2021/03/02 12:17:38;;;;;;;11.23;10.13;;;29.30;51.40;;;;;;5099603;28;20531;-71
2021/03/02 12:20:07;;;;;;;11.40;10.20;;;29.50;51.00;;;;;;5108734;28;20488;-73
2021/03/02 12:22:33;;;;;;;10.80;9.70;;;29.50;50.20;;;;;;5110752;28;20459;-72
2021/03/02 12:25:00;;;;;;;13.70;11.07;;;29.00;50.00;;;;;;5110982;28;20464;-72
2021/03/02 12:27:26;;;;;;;11.00;10.00;;;28.70;50.60;;;;;;5098407;28;20972;-72
2021/03/02 12:29:53;;;;;;;11.33;10.13;;;29.20;50.10;;;;;;5091465;28;20478;-72
2021/03/02 12:32:19;;;;;;;11.93;9.33;;;28.90;50.30;;;;;;5089943;28;20959;-71
2021/03/02 12:34:45;;;;;;;11.80;9.37;;;29.10;51.00;;;;;;5088120;28;20458;-72
2021/03/02 12:37:11;;;;;;;13.73;9.60;;;28.80;51.20;;;;;;5089599;28;20999;-72
2021/03/02 12:39:38;;;;;;;11.17;9.73;;;28.40;51.30;;;;;;5089145;28;20481;-72
2021/03/02 12:42:05;;;;;;;10.60;9.50;;;28.70;50.40;;;;;;5089528;28;20565;-72
2021/03/02 12:44:32;;;;;;;12.43;10.67;;;29.10;50.20;;;;;;5089991;28;20553;-72
2021/03/02 12:46:58;;;;;;;11.23;10.03;;;28.40;50.20;;;;;;5089777;28;20457;-72
2021/03/02 12:49:25;;;;;;;10.07;9.07;;;28.70;50.20;;;;;;5089640;28;20458;-72
2021/03/02 12:51:51;;;;;;;11.57;10.37;;;28.70;49.90;;;;;;5088999;28;20461;-72